createdAt,value
2017-03-23T00:00:07.622Z,1004.37
2017-03-23T00:01:07.637Z,1004.37
2017-03-23T00:02:07.653Z,1004.39
2017-03-23T00:03:07.668Z,1004.34
2017-03-23T00:04:07.686Z,1004.36
2017-03-23T00:05:07.701Z,1004.38
2017-03-23T00:06:07.716Z,1004.33
2017-03-23T00:07:07.732Z,1004.34
2017-03-23T00:08:07.749Z,1004.33
2017-03-23T00:09:07.764Z,1004.36
2017-03-23T00:10:07.780Z,1004.34
2017-03-23T00:11:07.796Z,1004.3
2017-03-23T00:12:07.812Z,1004.19
2017-03-23T00:13:07.830Z,1004.22
2017-03-23T00:14:07.845Z,1004.18
2017-03-23T00:15:07.859Z,1004.21
2017-03-23T00:16:07.874Z,1004.17
2017-03-23T00:17:07.890Z,1004.16
2017-03-23T00:18:07.906Z,1004.16
2017-03-23T00:19:07.922Z,1004.17
2017-03-23T00:20:07.937Z,1004.15
2017-03-23T00:21:07.954Z,1004.09
2017-03-23T00:22:07.971Z,1004.1
2017-03-23T00:23:07.985Z,1004.1
2017-03-23T00:24:08.006Z,1004.06
2017-03-23T00:25:08.016Z,1004.06
2017-03-23T00:26:08.033Z,1004.05
2017-03-23T00:27:08.046Z,1004.05
2017-03-23T00:28:08.065Z,1004.05
2017-03-23T00:29:08.079Z,1004.07
2017-03-23T00:30:08.094Z,1004.09
2017-03-23T00:31:08.110Z,1004.1
2017-03-23T00:32:08.126Z,1004.14
2017-03-23T00:33:08.143Z,1004.15
2017-03-23T00:34:08.158Z,1004.15
2017-03-23T00:35:08.173Z,1004.15
2017-03-23T00:36:08.189Z,1004.16
2017-03-23T00:37:08.207Z,1004.19
2017-03-23T00:38:08.221Z,1004.18
2017-03-23T00:39:08.237Z,1004.16
2017-03-23T00:40:08.254Z,1004.19
2017-03-23T00:41:08.268Z,1004.19
2017-03-23T00:42:08.284Z,1004.17
2017-03-23T00:43:08.299Z,1004.23
2017-03-23T00:44:08.320Z,1004.19
2017-03-23T00:45:08.330Z,1004.19
2017-03-23T00:46:08.347Z,1004.18
2017-03-23T00:47:08.363Z,1004.22
2017-03-23T00:48:08.378Z,1004.22
2017-03-23T00:49:08.395Z,1004.22
2017-03-23T00:50:08.413Z,1004.2
2017-03-23T00:51:08.425Z,1004.17
2017-03-23T00:52:08.441Z,1004.21
2017-03-23T00:53:08.457Z,1004.16
2017-03-23T00:54:08.473Z,1004.18
2017-03-23T00:55:08.488Z,1004.19
2017-03-23T00:56:08.503Z,1004.12
2017-03-23T00:57:08.519Z,1004.12
2017-03-23T00:58:08.538Z,1004.14
2017-03-23T00:59:08.551Z,1004.18
2017-03-23T01:00:08.567Z,1004.18
2017-03-23T01:01:08.582Z,1004.2
2017-03-23T01:02:08.599Z,1004.18
2017-03-23T01:03:08.615Z,1004.2
2017-03-23T01:04:08.635Z,1004.22
2017-03-23T01:05:08.648Z,1004.21
2017-03-23T01:06:08.664Z,1004.26
2017-03-23T01:07:08.676Z,1004.25
2017-03-23T01:08:08.693Z,1004.29
2017-03-23T01:09:08.709Z,1004.28
2017-03-23T01:10:08.723Z,1004.29
2017-03-23T01:11:08.740Z,1004.29
2017-03-23T01:12:08.754Z,1004.33
2017-03-23T01:13:08.769Z,1004.29
2017-03-23T01:14:08.786Z,1004.32
2017-03-23T01:15:08.802Z,1004.32
2017-03-23T01:16:08.817Z,1004.28
2017-03-23T01:17:08.834Z,1004.31
2017-03-23T01:18:08.848Z,1004.34
2017-03-23T01:19:08.866Z,1004.38
2017-03-23T01:20:08.880Z,1004.4
2017-03-23T01:21:08.895Z,1004.45
2017-03-23T01:22:08.912Z,1004.44
2017-03-23T01:23:08.949Z,1004.45
2017-03-23T01:24:08.942Z,1004.46
2017-03-23T01:25:08.958Z,1004.48
2017-03-23T01:26:08.974Z,1004.5
2017-03-23T01:27:08.989Z,1004.48
2017-03-23T01:28:09.006Z,1004.44
2017-03-23T01:29:09.020Z,1004.42
2017-03-23T01:30:09.037Z,1004.42
2017-03-23T01:31:09.052Z,1004.41
2017-03-23T01:32:09.067Z,1004.38
2017-03-23T01:33:09.084Z,1004.41
2017-03-23T01:34:09.099Z,1004.45
2017-03-23T01:35:09.117Z,1004.4
2017-03-23T01:36:09.131Z,1004.4
2017-03-23T01:37:09.146Z,1004.43
2017-03-23T01:38:09.160Z,1004.43
2017-03-23T01:39:09.177Z,1004.42
2017-03-23T01:40:09.192Z,1004.47
2017-03-23T01:41:09.208Z,1004.44
2017-03-23T01:42:09.225Z,1004.43
2017-03-23T01:43:09.239Z,1004.39
2017-03-23T01:44:09.255Z,1004.32
2017-03-23T01:45:09.271Z,1004.28
2017-03-23T01:46:09.287Z,1004.23
2017-03-23T01:47:09.302Z,1004.14
2017-03-23T01:48:09.317Z,1004.11
2017-03-23T01:49:09.333Z,1004.05
2017-03-23T01:50:09.349Z,1004.08
2017-03-23T01:51:09.365Z,1004.06
2017-03-23T01:52:09.380Z,1004.04
2017-03-23T01:53:09.396Z,1004.05
2017-03-23T01:54:09.411Z,1004.02
2017-03-23T01:55:09.427Z,1004.04
2017-03-23T01:56:09.442Z,1004.12
2017-03-23T01:57:09.459Z,1004.14
2017-03-23T01:58:09.475Z,1004.15
2017-03-23T01:59:09.491Z,1004.21
2017-03-23T02:00:09.509Z,1004.18
2017-03-23T02:01:09.520Z,1004.18
2017-03-23T02:02:09.535Z,1004.2
2017-03-23T02:03:09.551Z,1004.21
2017-03-23T02:04:09.567Z,1004.17
2017-03-23T02:05:09.582Z,1004.22
2017-03-23T02:06:09.631Z,1004.17
2017-03-23T02:07:09.613Z,1004.22
2017-03-23T02:08:09.633Z,1004.19
2017-03-23T02:09:09.645Z,1004.14
2017-03-23T02:10:09.659Z,1004.11
2017-03-23T02:11:09.677Z,1004.11
2017-03-23T02:12:09.693Z,1004.15
2017-03-23T02:13:09.707Z,1004.1
2017-03-23T02:14:09.723Z,1004.11
2017-03-23T02:15:09.738Z,1004.09
2017-03-23T02:16:09.753Z,1004.07
2017-03-23T02:17:09.769Z,1004.02
2017-03-23T02:18:09.786Z,1004.02
2017-03-23T02:19:09.800Z,1003.98
2017-03-23T02:20:09.816Z,1003.92
2017-03-23T02:21:09.832Z,1004.02
2017-03-23T02:22:09.847Z,1004.01
2017-03-23T02:23:09.864Z,1004.05
2017-03-23T02:24:09.878Z,1004.05
2017-03-23T02:25:09.893Z,1004.01
2017-03-23T02:26:09.909Z,1004
2017-03-23T02:27:09.923Z,1004.01
2017-03-23T02:28:09.941Z,1004.01
2017-03-23T02:29:09.956Z,1003.98
2017-03-23T02:30:09.972Z,1004.04
2017-03-23T02:31:09.987Z,1004.04
2017-03-23T02:32:10.002Z,1004.01
2017-03-23T02:33:10.019Z,1004.02
2017-03-23T02:34:10.033Z,1003.97
2017-03-23T02:35:10.049Z,1003.95
2017-03-23T02:36:10.066Z,1003.98
2017-03-23T02:37:10.081Z,1003.95
2017-03-23T02:38:10.096Z,1003.95
2017-03-23T02:39:10.112Z,1003.98
2017-03-23T02:40:10.128Z,1003.96
2017-03-23T02:41:10.144Z,1003.97
2017-03-23T02:42:10.158Z,1003.91
2017-03-23T02:43:10.174Z,1003.95
2017-03-23T02:44:10.190Z,1003.92
2017-03-23T02:45:10.205Z,1003.8
2017-03-23T02:46:10.220Z,1003.79
2017-03-23T02:47:10.236Z,1003.8
2017-03-23T02:48:10.251Z,1003.78
2017-03-23T02:49:10.267Z,1003.8
2017-03-23T02:50:10.283Z,1003.76
2017-03-23T02:51:10.299Z,1003.73
2017-03-23T02:52:10.315Z,1003.79
2017-03-23T02:53:10.328Z,1003.77
2017-03-23T02:54:10.344Z,1003.81
2017-03-23T02:55:10.359Z,1003.8
2017-03-23T02:56:10.376Z,1003.82
2017-03-23T02:57:10.391Z,1003.85
2017-03-23T02:58:10.406Z,1003.9
2017-03-23T02:59:10.422Z,1003.91
2017-03-23T03:00:10.437Z,1003.93
2017-03-23T03:01:10.454Z,1003.92
2017-03-23T03:02:10.468Z,1003.9
2017-03-23T03:03:10.486Z,1003.94
2017-03-23T03:04:10.499Z,1003.92
2017-03-23T03:05:10.515Z,1003.9
2017-03-23T03:06:10.532Z,1003.86
2017-03-23T03:07:10.547Z,1003.87
2017-03-23T03:08:10.560Z,1003.85
2017-03-23T03:09:10.576Z,1003.89
2017-03-23T03:10:10.593Z,1003.88
2017-03-23T03:11:10.607Z,1003.89
2017-03-23T03:12:10.622Z,1003.97
2017-03-23T03:13:10.639Z,1003.9
2017-03-23T03:14:10.655Z,1003.95
2017-03-23T03:15:10.669Z,1003.96
2017-03-23T03:16:10.685Z,1003.95
2017-03-23T03:17:10.700Z,1003.98
2017-03-23T03:18:10.715Z,1003.94
2017-03-23T03:19:10.730Z,1003.93
2017-03-23T03:20:10.747Z,1003.88
2017-03-23T03:21:10.761Z,1003.83
2017-03-23T03:22:10.777Z,1003.81
2017-03-23T03:23:10.792Z,1003.82
2017-03-23T03:24:10.808Z,1003.87
2017-03-23T03:25:10.823Z,1003.84
2017-03-23T03:26:10.838Z,1003.83
2017-03-23T03:27:10.855Z,1003.84
2017-03-23T03:28:10.869Z,1003.83
2017-03-23T03:29:10.884Z,1003.81
2017-03-23T03:30:10.900Z,1003.88
2017-03-23T03:31:10.915Z,1003.89
2017-03-23T03:32:10.933Z,1003.87
2017-03-23T03:33:10.946Z,1003.85
2017-03-23T03:34:10.962Z,1003.88
2017-03-23T03:35:10.978Z,1003.88
2017-03-23T03:36:10.992Z,1003.85
2017-03-23T03:37:11.007Z,1003.86
2017-03-23T03:38:11.024Z,1003.84
2017-03-23T03:39:11.039Z,1003.85
2017-03-23T03:40:11.055Z,1003.85
2017-03-23T03:41:11.069Z,1003.85
2017-03-23T03:42:11.085Z,1003.8
2017-03-23T03:43:11.104Z,1003.77
2017-03-23T03:44:11.116Z,1003.75
2017-03-23T03:45:11.132Z,1003.81
2017-03-23T03:46:11.147Z,1003.78
2017-03-23T03:47:11.163Z,1003.8
2017-03-23T03:48:11.176Z,1003.8
2017-03-23T03:49:11.192Z,1003.8
2017-03-23T03:50:11.208Z,1003.8
2017-03-23T03:51:11.223Z,1003.8
2017-03-23T03:52:11.238Z,1003.85
2017-03-23T03:53:11.254Z,1003.82
2017-03-23T03:54:11.269Z,1003.8
2017-03-23T03:55:11.285Z,1003.88
2017-03-23T03:56:11.300Z,1003.9
2017-03-23T03:57:11.316Z,1003.88
2017-03-23T03:58:11.330Z,1003.92
2017-03-23T03:59:11.346Z,1003.88
2017-03-23T04:00:11.363Z,1003.98
2017-03-23T04:01:11.376Z,1003.9
2017-03-23T04:02:11.391Z,1003.96
2017-03-23T04:03:11.406Z,1003.94
2017-03-23T04:04:11.422Z,1003.95
2017-03-23T04:05:11.439Z,1003.96
2017-03-23T04:06:11.452Z,1004.01
2017-03-23T04:07:11.478Z,1003.98
2017-03-23T04:08:11.497Z,1004.01
2017-03-23T04:09:11.500Z,1004.01
2017-03-23T04:10:11.516Z,1004
2017-03-23T04:11:11.531Z,1004.01
2017-03-23T04:12:11.546Z,1004.01
2017-03-23T04:13:11.561Z,1004
2017-03-23T04:14:11.576Z,1003.99
2017-03-23T04:15:11.593Z,1003.99
2017-03-23T04:16:11.609Z,1004.01
2017-03-23T04:17:11.623Z,1004.05
2017-03-23T04:18:11.637Z,1004.06
2017-03-23T04:19:11.652Z,1004.05
2017-03-23T04:20:11.667Z,1004.07
2017-03-23T04:21:11.683Z,1004.07
2017-03-23T04:22:11.700Z,1004.04
2017-03-23T04:23:11.715Z,1004.02
2017-03-23T04:24:11.728Z,1004.03
2017-03-23T04:25:11.745Z,1003.97
2017-03-23T04:26:11.761Z,1004
2017-03-23T04:27:11.776Z,1004.01
2017-03-23T04:28:11.790Z,1003.99
2017-03-23T04:29:11.808Z,1003.97
2017-03-23T04:30:11.821Z,1004.01
2017-03-23T04:31:11.834Z,1004.04
2017-03-23T04:32:11.852Z,1004.03
2017-03-23T04:33:11.866Z,1004.03
2017-03-23T04:34:11.882Z,1004.04
2017-03-23T04:35:11.897Z,1004.09
2017-03-23T04:36:11.913Z,1004.12
2017-03-23T04:37:11.927Z,1004.1
2017-03-23T04:38:11.943Z,1004.13
2017-03-23T04:39:11.959Z,1004.16
2017-03-23T04:40:11.973Z,1004.13
2017-03-23T04:41:11.989Z,1004.12
2017-03-23T04:42:12.004Z,1004.15
2017-03-23T04:43:12.019Z,1004.14
2017-03-23T04:44:12.035Z,1004.14
2017-03-23T04:45:12.053Z,1004.16
2017-03-23T04:46:12.064Z,1004.15
2017-03-23T04:47:12.080Z,1004.15
2017-03-23T04:48:12.095Z,1004.16
2017-03-23T04:49:12.110Z,1004.18
2017-03-23T04:50:12.125Z,1004.19
2017-03-23T04:51:12.142Z,1004.22
2017-03-23T04:52:12.156Z,1004.22
2017-03-23T04:53:12.171Z,1004.24
2017-03-23T04:54:12.187Z,1004.21
2017-03-23T04:55:12.201Z,1004.24
2017-03-23T04:56:12.217Z,1004.2
2017-03-23T04:57:12.232Z,1004.23
2017-03-23T04:58:12.246Z,1004.24
2017-03-23T04:59:12.262Z,1004.21
2017-03-23T05:00:12.280Z,1004.19
2017-03-23T05:01:12.371Z,1004.18
2017-03-23T05:02:12.403Z,1004.19
2017-03-23T05:03:12.323Z,1004.18
2017-03-23T05:04:12.338Z,1004.2
2017-03-23T05:05:12.353Z,1004.21
2017-03-23T05:06:12.368Z,1004.21
2017-03-23T05:07:12.385Z,1004.19
2017-03-23T05:08:12.403Z,1004.2
2017-03-23T05:09:12.428Z,1004.18
2017-03-23T05:10:12.429Z,1004.19
2017-03-23T05:11:12.445Z,1004.2
2017-03-23T05:12:12.464Z,1004.17
2017-03-23T05:13:12.475Z,1004.14
2017-03-23T05:14:12.491Z,1004.14
2017-03-23T05:15:12.505Z,1004.14
2017-03-23T05:16:12.520Z,1004.15
2017-03-23T05:17:12.536Z,1004.19
2017-03-23T05:18:12.550Z,1004.19
2017-03-23T05:19:12.568Z,1004.21
2017-03-23T05:20:12.581Z,1004.23
2017-03-23T05:21:12.596Z,1004.25
2017-03-23T05:22:12.612Z,1004.29
2017-03-23T05:23:12.626Z,1004.3
2017-03-23T05:24:12.642Z,1004.34
2017-03-23T05:25:12.658Z,1004.35
2017-03-23T05:26:12.672Z,1004.3
2017-03-23T05:27:12.686Z,1004.38
2017-03-23T05:28:12.702Z,1004.37
2017-03-23T05:29:12.718Z,1004.36
2017-03-23T05:30:12.733Z,1004.38
2017-03-23T05:31:12.748Z,1004.42
2017-03-23T05:32:12.764Z,1004.42
2017-03-23T05:33:12.778Z,1004.45
2017-03-23T05:34:12.793Z,1004.43
2017-03-23T05:35:12.808Z,1004.44
2017-03-23T05:36:12.823Z,1004.46
2017-03-23T05:37:12.837Z,1004.49
2017-03-23T05:38:12.854Z,1004.52
2017-03-23T05:39:12.869Z,1004.49
2017-03-23T05:40:12.884Z,1004.5
2017-03-23T05:41:12.899Z,1004.51
2017-03-23T05:42:12.917Z,1004.54
2017-03-23T05:43:12.929Z,1004.53
2017-03-23T05:44:12.946Z,1004.55
2017-03-23T05:45:12.960Z,1004.59
2017-03-23T05:46:12.975Z,1004.57
2017-03-23T05:47:12.991Z,1004.62
2017-03-23T05:48:13.011Z,1004.6
2017-03-23T05:49:13.021Z,1004.58
2017-03-23T05:50:13.038Z,1004.62
2017-03-23T05:51:13.055Z,1004.67
2017-03-23T05:52:13.066Z,1004.65
2017-03-23T05:53:13.081Z,1004.67
2017-03-23T05:54:13.097Z,1004.68
2017-03-23T05:55:13.112Z,1004.73
2017-03-23T05:56:13.129Z,1004.7
2017-03-23T05:57:13.166Z,1004.7
2017-03-23T05:58:13.158Z,1004.74
2017-03-23T05:59:13.174Z,1004.71
2017-03-23T06:00:13.189Z,1004.71
2017-03-23T06:01:13.204Z,1004.71
2017-03-23T06:02:13.222Z,1004.75
2017-03-23T06:03:13.233Z,1004.73
2017-03-23T06:04:13.251Z,1004.74
2017-03-23T06:05:13.264Z,1004.72
2017-03-23T06:06:13.279Z,1004.75
2017-03-23T06:07:13.294Z,1004.7
2017-03-23T06:08:13.310Z,1004.71
2017-03-23T06:09:13.325Z,1004.72
2017-03-23T06:10:13.340Z,1004.73
2017-03-23T06:11:13.355Z,1004.74
2017-03-23T06:12:13.371Z,1004.74
2017-03-23T06:13:13.385Z,1004.77
2017-03-23T06:14:13.400Z,1004.77
2017-03-23T06:15:13.415Z,1004.77
2017-03-23T06:16:13.431Z,1004.81
2017-03-23T06:17:13.444Z,1004.79
2017-03-23T06:18:13.460Z,1004.8
2017-03-23T06:19:13.477Z,1004.8
2017-03-23T06:20:13.492Z,1004.8
2017-03-23T06:21:13.505Z,1004.82
2017-03-23T06:22:13.523Z,1004.81
2017-03-23T06:23:13.537Z,1004.83
2017-03-23T06:24:13.556Z,1004.83
2017-03-23T06:25:13.567Z,1004.82
2017-03-23T06:26:13.584Z,1004.84
2017-03-23T06:27:13.638Z,1004.88
2017-03-23T06:28:13.613Z,1004.86
2017-03-23T06:29:13.628Z,1004.93
2017-03-23T06:30:13.645Z,1004.95
2017-03-23T06:31:13.660Z,1004.93
2017-03-23T06:32:13.676Z,1004.98
2017-03-23T06:33:13.690Z,1004.99
2017-03-23T06:34:13.705Z,1005.04
2017-03-23T06:35:13.723Z,1005.05
2017-03-23T06:36:13.735Z,1005.07
2017-03-23T06:37:13.751Z,1005.06
2017-03-23T06:38:13.766Z,1005.11
2017-03-23T06:39:13.780Z,1005.13
2017-03-23T06:40:13.796Z,1005.16
2017-03-23T06:41:13.811Z,1005.14
2017-03-23T06:42:13.827Z,1005.18
2017-03-23T06:43:13.842Z,1005.19
2017-03-23T06:44:13.859Z,1005.23
2017-03-23T06:45:13.872Z,1005.2
2017-03-23T06:46:13.888Z,1005.25
2017-03-23T06:47:13.906Z,1005.2
2017-03-23T06:48:13.918Z,1005.23
2017-03-23T06:49:13.934Z,1005.22
2017-03-23T06:50:13.950Z,1005.2
2017-03-23T06:51:13.966Z,1005.22
2017-03-23T06:52:13.982Z,1005.2
2017-03-23T06:53:13.995Z,1005.16
2017-03-23T06:54:14.013Z,1005.14
2017-03-23T06:55:14.025Z,1005.14
2017-03-23T06:56:14.042Z,1005.16
2017-03-23T06:57:14.059Z,1005.14
2017-03-23T06:58:14.074Z,1005.16
2017-03-23T06:59:14.087Z,1005.18
2017-03-23T07:00:14.103Z,1005.18
2017-03-23T07:01:14.154Z,1005.2
2017-03-23T07:02:14.132Z,1005.16
2017-03-23T07:03:14.148Z,1005.18
2017-03-23T07:04:14.172Z,1005.18
2017-03-23T07:05:14.178Z,1005.19
2017-03-23T07:06:14.195Z,1005.14
2017-03-23T07:07:14.210Z,1005.13
2017-03-23T07:08:14.229Z,1005.15
2017-03-23T07:09:14.241Z,1005.14
2017-03-23T07:10:14.256Z,1005.13
2017-03-23T07:11:14.272Z,1005.18
2017-03-23T07:12:14.286Z,1005.15
2017-03-23T07:13:14.301Z,1005.18
2017-03-23T07:14:14.318Z,1005.22
2017-03-23T07:15:14.335Z,1005.21
2017-03-23T07:16:14.347Z,1005.23
2017-03-23T07:17:14.364Z,1005.21
2017-03-23T07:18:14.379Z,1005.22
2017-03-23T07:19:14.395Z,1005.22
2017-03-23T07:20:14.410Z,1005.22
2017-03-23T07:21:14.427Z,1005.23
2017-03-23T07:22:14.442Z,1005.23
2017-03-23T07:23:14.458Z,1005.26
2017-03-23T07:24:14.473Z,1005.23
2017-03-23T07:25:14.490Z,1005.24
2017-03-23T07:26:14.504Z,1005.24
2017-03-23T07:27:14.520Z,1005.23
2017-03-23T07:28:14.536Z,1005.27
2017-03-23T07:29:14.550Z,1005.23
2017-03-23T07:30:14.565Z,1005.25
2017-03-23T07:31:14.582Z,1005.27
2017-03-23T07:32:14.597Z,1005.27
2017-03-23T07:33:14.615Z,1005.26
2017-03-23T07:34:14.629Z,1005.25
2017-03-23T07:35:14.644Z,1005.28
2017-03-23T07:36:14.660Z,1005.24
2017-03-23T07:37:14.676Z,1005.24
2017-03-23T07:38:14.691Z,1005.23
2017-03-23T07:39:14.707Z,1005.21
2017-03-23T07:40:14.722Z,1005.26
2017-03-23T07:41:14.737Z,1005.23
2017-03-23T07:42:14.756Z,1005.23
2017-03-23T07:43:14.770Z,1005.25
2017-03-23T07:44:14.785Z,1005.25
2017-03-23T07:45:14.801Z,1005.25
2017-03-23T07:46:14.816Z,1005.27
2017-03-23T07:47:14.833Z,1005.23
2017-03-23T07:48:14.847Z,1005.23
2017-03-23T07:49:14.862Z,1005.2
2017-03-23T07:50:14.880Z,1005.22
2017-03-23T07:51:14.987Z,1005.22
2017-03-23T07:52:14.913Z,1005.26
2017-03-23T07:53:14.926Z,1005.23
2017-03-23T07:54:14.944Z,1005.22
2017-03-23T07:55:14.957Z,1005.19
2017-03-23T07:56:14.973Z,1005.23
2017-03-23T07:57:14.989Z,1005.22
2017-03-23T07:58:15.006Z,1005.24
2017-03-23T07:59:15.021Z,1005.26
2017-03-23T08:00:15.038Z,1005.33
2017-03-23T08:01:15.053Z,1005.32
2017-03-23T08:02:15.070Z,1005.34
2017-03-23T08:03:15.083Z,1005.27
2017-03-23T08:04:15.099Z,1005.29
2017-03-23T08:05:15.117Z,1005.28
2017-03-23T08:06:15.134Z,1005.31
2017-03-23T08:07:15.148Z,1005.34
2017-03-23T08:08:15.163Z,1005.32
2017-03-23T08:09:15.180Z,1005.34
2017-03-23T08:10:15.196Z,1005.35
2017-03-23T08:11:15.211Z,1005.35
2017-03-23T08:12:15.227Z,1005.39
2017-03-23T08:13:15.244Z,1005.37
2017-03-23T08:14:15.259Z,1005.38
2017-03-23T08:15:15.276Z,1005.39
2017-03-23T08:16:15.292Z,1005.41
2017-03-23T08:17:15.308Z,1005.38
2017-03-23T08:18:15.325Z,1005.4
2017-03-23T08:19:15.340Z,1005.39
2017-03-23T08:20:15.357Z,1005.35
2017-03-23T08:21:15.372Z,1005.39
2017-03-23T08:22:15.388Z,1005.4
2017-03-23T08:23:15.404Z,1005.35
2017-03-23T08:24:15.420Z,1005.38
2017-03-23T08:25:15.436Z,1005.39
2017-03-23T08:26:15.452Z,1005.37
2017-03-23T08:27:15.469Z,1005.37
2017-03-23T08:28:15.485Z,1005.38
2017-03-23T08:29:15.501Z,1005.35
2017-03-23T08:30:15.517Z,1005.4
2017-03-23T08:31:15.533Z,1005.38
2017-03-23T08:32:15.549Z,1005.41
2017-03-23T08:33:15.563Z,1005.4
2017-03-23T08:34:15.580Z,1005.45
2017-03-23T08:35:15.597Z,1005.43
2017-03-23T08:36:15.612Z,1005.43
2017-03-23T08:37:15.629Z,1005.46
2017-03-23T08:38:15.645Z,1005.49
2017-03-23T08:39:15.661Z,1005.48
2017-03-23T08:40:15.707Z,1005.48
2017-03-23T08:41:15.695Z,1005.53
2017-03-23T08:42:15.712Z,1005.5
2017-03-23T08:43:15.727Z,1005.52
2017-03-23T08:44:15.742Z,1005.53
2017-03-23T08:45:15.759Z,1005.5
2017-03-23T08:46:15.783Z,1005.54
2017-03-23T08:47:15.790Z,1005.56
2017-03-23T08:48:15.807Z,1005.61
2017-03-23T08:49:15.828Z,1005.6
2017-03-23T08:50:15.844Z,1005.58
2017-03-23T08:51:15.860Z,1005.61
2017-03-23T08:52:15.872Z,1005.6
2017-03-23T08:53:15.888Z,1005.62
2017-03-23T08:54:15.905Z,1005.62
2017-03-23T08:55:15.923Z,1005.67
2017-03-23T08:56:15.938Z,1005.64
2017-03-23T08:57:15.953Z,1005.69
2017-03-23T08:58:15.970Z,1005.66
2017-03-23T08:59:15.987Z,1005.7
2017-03-23T09:00:16.003Z,1005.69
2017-03-23T09:01:16.022Z,1005.65
2017-03-23T09:02:16.034Z,1005.6
2017-03-23T09:03:16.051Z,1005.65
2017-03-23T09:04:16.066Z,1005.63
2017-03-23T09:05:16.083Z,1005.62
2017-03-23T09:06:16.100Z,1005.62
2017-03-23T09:07:16.219Z,1005.67
2017-03-23T09:08:16.216Z,1005.69
2017-03-23T09:09:16.215Z,1005.69
2017-03-23T09:10:16.222Z,1005.74
2017-03-23T09:11:16.251Z,1005.77
2017-03-23T09:12:16.241Z,1005.76
2017-03-23T09:13:16.250Z,1005.8
2017-03-23T09:14:16.249Z,1005.8
2017-03-23T09:15:16.299Z,1005.84
2017-03-23T09:16:16.306Z,1005.85
2017-03-23T09:17:16.278Z,1005.88
2017-03-23T09:18:16.333Z,1005.86
2017-03-23T09:19:16.331Z,1005.82
2017-03-23T09:20:16.341Z,1005.86
2017-03-23T09:21:16.350Z,1005.88
2017-03-23T09:22:16.360Z,1005.84
2017-03-23T09:23:16.377Z,1005.83
2017-03-23T09:24:16.493Z,1005.9
2017-03-23T09:25:16.409Z,1005.86
2017-03-23T09:26:16.426Z,1005.88
2017-03-23T09:27:16.550Z,1005.92
2017-03-23T09:28:16.459Z,1005.84
2017-03-23T09:29:16.474Z,1005.85
2017-03-23T09:30:16.492Z,1005.86
2017-03-23T09:31:16.507Z,1005.94
2017-03-23T09:32:16.523Z,1005.9
2017-03-23T09:33:16.542Z,1005.89
2017-03-23T09:34:16.558Z,1005.89
2017-03-23T09:35:16.572Z,1005.89
2017-03-23T09:36:16.590Z,1005.88
2017-03-23T09:37:16.607Z,1005.88
2017-03-23T09:38:16.621Z,1005.9
2017-03-23T09:39:16.638Z,1005.89
2017-03-23T09:40:16.654Z,1005.88
2017-03-23T09:41:16.671Z,1005.89
2017-03-23T09:42:16.687Z,1005.86
2017-03-23T09:43:16.703Z,1005.83
2017-03-23T09:44:16.720Z,1005.86
2017-03-23T09:45:16.737Z,1005.81
2017-03-23T09:46:16.752Z,1005.81
2017-03-23T09:47:16.769Z,1005.78
2017-03-23T09:48:16.786Z,1005.78
2017-03-23T09:49:16.800Z,1005.76
2017-03-23T09:50:16.818Z,1005.77
2017-03-23T09:51:16.835Z,1005.76
2017-03-23T09:52:16.850Z,1005.77
2017-03-23T09:53:16.866Z,1005.79
2017-03-23T09:54:16.883Z,1005.81
2017-03-23T09:55:16.900Z,1005.78
2017-03-23T09:56:16.917Z,1005.81
2017-03-23T09:57:16.933Z,1005.85
2017-03-23T09:58:16.948Z,1005.86
2017-03-23T09:59:16.964Z,1005.85
2017-03-23T10:00:16.982Z,1005.79
2017-03-23T10:01:16.999Z,1005.79
2017-03-23T10:02:17.014Z,1005.86
2017-03-23T10:03:17.032Z,1005.88
2017-03-23T10:04:17.047Z,1005.86
2017-03-23T10:05:17.064Z,1005.86
2017-03-23T10:06:17.079Z,1005.86
2017-03-23T10:07:17.099Z,1005.92
2017-03-23T10:08:17.111Z,1005.94
2017-03-23T10:09:17.129Z,1005.91
2017-03-23T10:10:17.146Z,1005.89
2017-03-23T10:11:17.161Z,1005.9
2017-03-23T10:12:17.178Z,1005.87
2017-03-23T10:13:17.203Z,1005.87
2017-03-23T10:14:17.211Z,1005.87
2017-03-23T10:15:17.227Z,1005.9
2017-03-23T10:16:17.244Z,1005.88
2017-03-23T10:17:17.260Z,1005.9
2017-03-23T10:18:17.278Z,1005.89
2017-03-23T10:19:17.292Z,1005.89
2017-03-23T10:20:17.310Z,1005.89
2017-03-23T10:21:17.327Z,1005.89
2017-03-23T10:22:17.341Z,1005.94
2017-03-23T10:23:17.359Z,1005.96
2017-03-23T10:24:17.374Z,1005.93
2017-03-23T10:25:17.394Z,1006
2017-03-23T10:26:17.423Z,1005.93
2017-03-23T10:27:17.425Z,1005.93
2017-03-23T10:28:17.440Z,1005.95
2017-03-23T10:29:17.457Z,1005.98
2017-03-23T10:30:17.476Z,1006.03
2017-03-23T10:31:17.491Z,1006.01
2017-03-23T10:32:17.508Z,1006.01
2017-03-23T10:33:17.523Z,1006.02
2017-03-23T10:34:17.590Z,1006.04
2017-03-23T10:35:17.558Z,1006.03
2017-03-23T10:36:17.573Z,1006.07
2017-03-23T10:37:17.590Z,1006.09
2017-03-23T10:38:17.607Z,1006.09
2017-03-23T10:39:17.622Z,1006.09
2017-03-23T10:40:17.640Z,1006.13
2017-03-23T10:41:17.656Z,1006.1
2017-03-23T10:42:17.672Z,1006.12
2017-03-23T10:43:17.689Z,1006.12
2017-03-23T10:44:17.708Z,1006.08
2017-03-23T10:45:17.724Z,1006.1
2017-03-23T10:46:17.739Z,1006.13
2017-03-23T10:47:17.756Z,1006.13
2017-03-23T10:48:17.772Z,1006.17
2017-03-23T10:49:17.788Z,1006.16
2017-03-23T10:50:17.806Z,1006.14
2017-03-23T10:51:17.821Z,1006.12
2017-03-23T10:52:17.838Z,1006.16
2017-03-23T10:53:17.855Z,1006.12
2017-03-23T10:54:17.871Z,1006.09
2017-03-23T10:55:17.931Z,1006.09
2017-03-23T10:56:17.905Z,1006.05
2017-03-23T10:57:17.922Z,1006.01
2017-03-23T10:58:17.938Z,1005.99
2017-03-23T10:59:17.955Z,1006.01
2017-03-23T11:00:17.972Z,1005.96
2017-03-23T11:01:17.989Z,1005.97
2017-03-23T11:02:18.005Z,1005.96
2017-03-23T11:03:18.022Z,1005.96
2017-03-23T11:04:18.038Z,1005.9
2017-03-23T11:05:18.056Z,1005.95
2017-03-23T11:06:18.071Z,1005.9
2017-03-23T11:07:18.090Z,1005.9
2017-03-23T11:08:18.106Z,1005.9
2017-03-23T11:09:18.124Z,1005.88
2017-03-23T11:10:18.139Z,1005.88
2017-03-23T11:11:18.156Z,1005.91
2017-03-23T11:12:18.173Z,1005.9
2017-03-23T11:13:18.188Z,1005.94
2017-03-23T11:14:18.207Z,1005.92
2017-03-23T11:15:18.222Z,1005.94
2017-03-23T11:16:18.240Z,1005.94
2017-03-23T11:17:18.256Z,1005.93
2017-03-23T11:18:18.272Z,1005.93
2017-03-23T11:19:18.289Z,1005.96
2017-03-23T11:20:18.306Z,1005.95
2017-03-23T11:21:18.321Z,1005.91
2017-03-23T11:22:18.341Z,1005.95
2017-03-23T11:23:18.356Z,1005.94
2017-03-23T11:24:18.372Z,1005.92
2017-03-23T11:25:18.390Z,1005.93
2017-03-23T11:26:18.406Z,1005.95
2017-03-23T11:27:18.425Z,1005.95
2017-03-23T11:28:18.440Z,1005.94
2017-03-23T11:29:18.456Z,1005.9
2017-03-23T11:30:18.473Z,1005.91
2017-03-23T11:31:18.491Z,1005.94
2017-03-23T11:32:18.509Z,1005.92
2017-03-23T11:33:18.524Z,1005.93
2017-03-23T11:34:18.543Z,1005.97
2017-03-23T11:35:18.568Z,1005.97
2017-03-23T11:36:18.576Z,1005.94
2017-03-23T11:37:18.593Z,1006.01
2017-03-23T11:38:18.610Z,1005.99
2017-03-23T11:39:18.628Z,1005.97
2017-03-23T11:40:18.645Z,1006
2017-03-23T11:41:18.662Z,1005.95
2017-03-23T11:42:18.681Z,1005.99
2017-03-23T11:43:18.696Z,1006.01
2017-03-23T11:44:18.716Z,1006.01
2017-03-23T11:45:18.732Z,1006
2017-03-23T11:46:18.750Z,1006.01
2017-03-23T11:47:18.766Z,1006
2017-03-23T11:48:18.785Z,1006.01
2017-03-23T11:49:18.803Z,1006.05
2017-03-23T11:50:18.817Z,1006.04
2017-03-23T11:51:18.836Z,1006.11
2017-03-23T11:52:18.855Z,1006.1
2017-03-23T11:53:18.871Z,1006.13
2017-03-23T11:54:18.888Z,1006.14
2017-03-23T11:55:18.906Z,1006.12
2017-03-23T11:56:18.924Z,1006.11
2017-03-23T11:57:18.941Z,1006.1
2017-03-23T11:58:18.959Z,1006.13
2017-03-23T11:59:18.975Z,1006.08
2017-03-23T12:00:18.993Z,1006.07
2017-03-23T12:01:19.011Z,1006.08
2017-03-23T12:02:19.028Z,1006.06
2017-03-23T12:03:19.046Z,1006.04
2017-03-23T12:04:19.064Z,1006.01
2017-03-23T12:05:19.082Z,1006.03
2017-03-23T12:06:19.100Z,1006
2017-03-23T12:07:19.118Z,1005.98
2017-03-23T12:08:19.134Z,1005.98
2017-03-23T12:09:19.153Z,1005.99